sensor_id;sensor_type;location;lat;lon;timestamp;P1;durP1;ratioP1;P2;durP2;ratioP2
83443;SDS011;73374;41.170;-96.156;2024-03-02T00:04:34;9.15;;;4.80;;
83443;SDS011;73374;41.170;-96.156;2024-03-02T00:09:39;10.10;;;4.75;;
83443;SDS011;73374;41.170;-96.156;2024-03-02T00:14:42;11.82;;;3.85;;
83443;SDS011;73374;41.170;-96.156;2024-03-02T00:19:45;7.88;;;4.43;;
83443;SDS011;73374;41.170;-96.156;2024-03-02T00:24:50;7.90;;;4.93;;
83443;SDS011;73374;41.170;-96.156;2024-03-02T00:29:53;8.13;;;3.92;;
83443;SDS011;73374;41.170;-96.156;2024-03-02T00:34:56;9.68;;;3.72;;
83443;SDS011;73374;41.170;-96.156;2024-03-02T00:40:01;7.32;;;4.53;;
83443;SDS011;73374;41.170;-96.156;2024-03-02T00:45:05;7.30;;;4.20;;
83443;SDS011;73374;41.170;-96.156;2024-03-02T00:50:10;10.63;;;4.35;;
83443;SDS011;73374;41.170;-96.156;2024-03-02T00:55:28;9.57;;;4.25;;
83443;SDS011;73374;41.170;-96.156;2024-03-02T01:00:31;5.93;;;3.20;;
83443;SDS011;73374;41.170;-96.156;2024-03-02T01:05:34;12.35;;;4.40;;
83443;SDS011;73374;41.170;-96.156;2024-03-02T01:10:39;8.38;;;4.20;;
83443;SDS011;73374;41.170;-96.156;2024-03-02T01:15:42;8.20;;;4.03;;
83443;SDS011;73374;41.170;-96.156;2024-03-02T01:20:45;7.43;;;4.13;;
83443;SDS011;73374;41.170;-96.156;2024-03-02T01:25:50;5.25;;;2.72;;
83443;SDS011;73374;41.170;-96.156;2024-03-02T01:30:53;10.15;;;5.28;;
83443;SDS011;73374;41.170;-96.156;2024-03-02T01:35:56;10.32;;;5.75;;
83443;SDS011;73374;41.170;-96.156;2024-03-02T01:41:01;6.95;;;3.03;;
83443;SDS011;73374;41.170;-96.156;2024-03-02T01:46:04;9.57;;;4.30;;
83443;SDS011;73374;41.170;-96.156;2024-03-02T01:51:07;8.90;;;3.92;;
83443;SDS011;73374;41.170;-96.156;2024-03-02T01:56:12;7.93;;;4.68;;
83443;SDS011;73374;41.170;-96.156;2024-03-02T02:01:15;7.85;;;4.53;;
83443;SDS011;73374;41.170;-96.156;2024-03-02T02:06:18;8.30;;;4.70;;
83443;SDS011;73374;41.170;-96.156;2024-03-02T02:11:23;12.38;;;5.22;;
83443;SDS011;73374;41.170;-96.156;2024-03-02T02:16:27;7.32;;;4.93;;
83443;SDS011;73374;41.170;-96.156;2024-03-02T02:21:32;6.75;;;4.22;;
83443;SDS011;73374;41.170;-96.156;2024-03-02T02:26:35;10.85;;;5.57;;
83443;SDS011;73374;41.170;-96.156;2024-03-02T02:31:38;10.25;;;4.57;;
83443;SDS011;73374;41.170;-96.156;2024-03-02T02:36:43;10.38;;;5.78;;
83443;SDS011;73374;41.170;-96.156;2024-03-02T02:41:46;9.77;;;5.00;;
83443;SDS011;73374;41.170;-96.156;2024-03-02T02:46:49;9.05;;;4.65;;
83443;SDS011;73374;41.170;-96.156;2024-03-02T02:51:53;8.45;;;4.80;;
83443;SDS011;73374;41.170;-96.156;2024-03-02T02:56:57;9.45;;;5.63;;
83443;SDS011;73374;41.170;-96.156;2024-03-02T03:02:00;10.27;;;6.13;;
83443;SDS011;73374;41.170;-96.156;2024-03-02T03:07:04;11.30;;;6.45;;
83443;SDS011;73374;41.170;-96.156;2024-03-02T03:12:08;9.75;;;6.45;;
83443;SDS011;73374;41.170;-96.156;2024-03-02T03:17:11;11.82;;;6.65;;
83443;SDS011;73374;41.170;-96.156;2024-03-02T03:22:15;9.82;;;5.25;;
83443;SDS011;73374;41.170;-96.156;2024-03-02T03:27:19;10.32;;;6.63;;
83443;SDS011;73374;41.170;-96.156;2024-03-02T03:32:22;13.48;;;6.85;;
83443;SDS011;73374;41.170;-96.156;2024-03-02T03:37:26;11.80;;;7.38;;
83443;SDS011;73374;41.170;-96.156;2024-03-02T03:42:29;12.73;;;7.47;;
83443;SDS011;73374;41.170;-96.156;2024-03-02T03:47:32;14.02;;;8.63;;
83443;SDS011;73374;41.170;-96.156;2024-03-02T03:52:37;12.80;;;7.55;;
83443;SDS011;73374;41.170;-96.156;2024-03-02T03:57:40;12.18;;;7.57;;
83443;SDS011;73374;41.170;-96.156;2024-03-02T04:02:43;14.30;;;7.63;;
83443;SDS011;73374;41.170;-96.156;2024-03-02T04:07:48;16.05;;;7.05;;
83443;SDS011;73374;41.170;-96.156;2024-03-02T04:12:51;14.10;;;8.30;;
83443;SDS011;73374;41.170;-96.156;2024-03-02T04:17:54;11.52;;;7.07;;
83443;SDS011;73374;41.170;-96.156;2024-03-02T04:22:59;15.68;;;8.63;;
83443;SDS011;73374;41.170;-96.156;2024-03-02T04:28:02;14.77;;;9.00;;
83443;SDS011;73374;41.170;-96.156;2024-03-02T04:33:05;13.00;;;7.18;;
83443;SDS011;73374;41.170;-96.156;2024-03-02T04:38:10;14.73;;;9.00;;
83443;SDS011;73374;41.170;-96.156;2024-03-02T04:43:13;13.07;;;7.03;;
83443;SDS011;73374;41.170;-96.156;2024-03-02T04:48:16;16.75;;;9.32;;
83443;SDS011;73374;41.170;-96.156;2024-03-02T04:53:20;16.85;;;10.20;;
83443;SDS011;73374;41.170;-96.156;2024-03-02T04:58:23;15.23;;;8.05;;
83443;SDS011;73374;41.170;-96.156;2024-03-02T05:03:26;13.70;;;8.32;;
83443;SDS011;73374;41.170;-96.156;2024-03-02T05:08:31;18.52;;;8.48;;
83443;SDS011;73374;41.170;-96.156;2024-03-02T05:13:34;18.15;;;9.90;;
83443;SDS011;73374;41.170;-96.156;2024-03-02T05:18:39;13.52;;;8.52;;
83443;SDS011;73374;41.170;-96.156;2024-03-02T05:23:43;15.18;;;8.18;;
83443;SDS011;73374;41.170;-96.156;2024-03-02T05:28:46;15.10;;;9.32;;
83443;SDS011;73374;41.170;-96.156;2024-03-02T05:33:49;18.08;;;9.35;;
83443;SDS011;73374;41.170;-96.156;2024-03-02T05:38:59;17.27;;;9.07;;
83443;SDS011;73374;41.170;-96.156;2024-03-02T05:44:02;16.02;;;8.57;;
83443;SDS011;73374;41.170;-96.156;2024-03-02T05:49:05;15.13;;;8.35;;
83443;SDS011;73374;41.170;-96.156;2024-03-02T05:54:10;17.90;;;8.40;;
83443;SDS011;73374;41.170;-96.156;2024-03-02T05:59:13;17.17;;;7.85;;
83443;SDS011;73374;41.170;-96.156;2024-03-02T06:04:16;20.67;;;7.63;;
83443;SDS011;73374;41.170;-96.156;2024-03-02T06:09:21;17.13;;;8.07;;
83443;SDS011;73374;41.170;-96.156;2024-03-02T06:14:24;14.25;;;7.53;;
83443;SDS011;73374;41.170;-96.156;2024-03-02T06:19:27;17.77;;;7.55;;
83443;SDS011;73374;41.170;-96.156;2024-03-02T06:24:32;18.65;;;8.85;;
83443;SDS011;73374;41.170;-96.156;2024-03-02T06:29:35;20.92;;;9.02;;
83443;SDS011;73374;41.170;-96.156;2024-03-02T06:39:42;15.15;;;7.68;;
83443;SDS011;73374;41.170;-96.156;2024-03-02T06:44:46;13.07;;;6.53;;
83443;SDS011;73374;41.170;-96.156;2024-03-02T06:54:53;24.50;;;7.85;;
83443;SDS011;73374;41.170;-96.156;2024-03-02T06:59:56;16.75;;;8.55;;
83443;SDS011;73374;41.170;-96.156;2024-03-02T07:10:04;18.77;;;9.95;;
83443;SDS011;73374;41.170;-96.156;2024-03-02T07:15:07;21.70;;;8.57;;
83443;SDS011;73374;41.170;-96.156;2024-03-02T07:20:11;19.90;;;10.20;;
83443;SDS011;73374;41.170;-96.156;2024-03-02T07:25:16;16.05;;;8.57;;
83443;SDS011;73374;41.170;-96.156;2024-03-02T07:30:22;18.25;;;8.23;;
83443;SDS011;73374;41.170;-96.156;2024-03-02T07:40:29;16.95;;;8.85;;
83443;SDS011;73374;41.170;-96.156;2024-03-02T07:45:32;19.02;;;8.88;;
83443;SDS011;73374;41.170;-96.156;2024-03-02T07:50:35;19.35;;;10.05;;
83443;SDS011;73374;41.170;-96.156;2024-03-02T07:55:40;21.48;;;9.50;;
83443;SDS011;73374;41.170;-96.156;2024-03-02T08:00:43;25.02;;;14.10;;
83443;SDS011;73374;41.170;-96.156;2024-03-02T08:05:46;22.92;;;11.95;;
83443;SDS011;73374;41.170;-96.156;2024-03-02T08:15:53;20.17;;;9.57;;
83443;SDS011;73374;41.170;-96.156;2024-03-02T08:20:57;25.10;;;14.13;;
83443;SDS011;73374;41.170;-96.156;2024-03-02T08:31:04;24.80;;;12.73;;
83443;SDS011;73374;41.170;-96.156;2024-03-02T08:36:07;20.58;;;9.73;;
83443;SDS011;73374;41.170;-96.156;2024-03-02T08:41:12;25.08;;;11.20;;
83443;SDS011;73374;41.170;-96.156;2024-03-02T08:46:15;23.38;;;9.63;;
83443;SDS011;73374;41.170;-96.156;2024-03-02T08:51:18;28.08;;;12.90;;
83443;SDS011;73374;41.170;-96.156;2024-03-02T08:56:23;25.08;;;12.75;;
83443;SDS011;73374;41.170;-96.156;2024-03-02T09:01:27;30.67;;;14.02;;
83443;SDS011;73374;41.170;-96.156;2024-03-02T09:06:30;38.88;;;14.75;;
83443;SDS011;73374;41.170;-96.156;2024-03-02T09:11:35;31.67;;;12.90;;
83443;SDS011;73374;41.170;-96.156;2024-03-02T09:16:38;28.25;;;12.77;;
83443;SDS011;73374;41.170;-96.156;2024-03-02T09:21:41;45.30;;;18.48;;
83443;SDS011;73374;41.170;-96.156;2024-03-02T09:26:46;25.38;;;12.75;;
83443;SDS011;73374;41.170;-96.156;2024-03-02T09:31:49;30.42;;;13.45;;
83443;SDS011;73374;41.170;-96.156;2024-03-02T09:41:56;26.98;;;12.48;;
83443;SDS011;73374;41.170;-96.156;2024-03-02T09:47:00;38.75;;;17.05;;
83443;SDS011;73374;41.170;-96.156;2024-03-02T09:52:04;46.03;;;20.58;;
83443;SDS011;73374;41.170;-96.156;2024-03-02T09:57:10;46.88;;;19.92;;
83443;SDS011;73374;41.170;-96.156;2024-03-02T10:02:13;42.08;;;17.85;;
83443;SDS011;73374;41.170;-96.156;2024-03-02T10:12:21;48.50;;;20.50;;
83443;SDS011;73374;41.170;-96.156;2024-03-02T10:17:24;42.90;;;19.00;;
83443;SDS011;73374;41.170;-96.156;2024-03-02T10:22:34;40.95;;;15.23;;
83443;SDS011;73374;41.170;-96.156;2024-03-02T10:27:39;43.97;;;18.50;;
83443;SDS011;73374;41.170;-96.156;2024-03-02T10:32:43;39.58;;;17.70;;
83443;SDS011;73374;41.170;-96.156;2024-03-02T10:37:51;40.35;;;15.95;;
83443;SDS011;73374;41.170;-96.156;2024-03-02T10:42:56;34.33;;;14.60;;
83443;SDS011;73374;41.170;-96.156;2024-03-02T10:48:06;37.22;;;15.55;;
83443;SDS011;73374;41.170;-96.156;2024-03-02T10:53:10;30.42;;;13.80;;
83443;SDS011;73374;41.170;-96.156;2024-03-02T11:03:18;39.47;;;16.75;;
83443;SDS011;73374;41.170;-96.156;2024-03-02T11:08:22;36.30;;;15.48;;
83443;SDS011;73374;41.170;-96.156;2024-03-02T11:13:31;38.03;;;15.48;;
83443;SDS011;73374;41.170;-96.156;2024-03-02T11:18:34;36.35;;;14.85;;
83443;SDS011;73374;41.170;-96.156;2024-03-02T11:23:38;42.45;;;17.10;;
83443;SDS011;73374;41.170;-96.156;2024-03-02T11:28:43;42.60;;;18.60;;
83443;SDS011;73374;41.170;-96.156;2024-03-02T11:33:46;37.30;;;15.77;;
83443;SDS011;73374;41.170;-96.156;2024-03-02T11:38:49;29.92;;;11.38;;
83443;SDS011;73374;41.170;-96.156;2024-03-02T11:48:56;51.20;;;21.58;;
83443;SDS011;73374;41.170;-96.156;2024-03-02T11:54:00;39.58;;;16.20;;
83443;SDS011;73374;41.170;-96.156;2024-03-02T11:59:06;43.08;;;18.25;;
83443;SDS011;73374;41.170;-96.156;2024-03-02T12:04:10;41.13;;;18.05;;
83443;SDS011;73374;41.170;-96.156;2024-03-02T12:09:13;52.22;;;22.25;;
83443;SDS011;73374;41.170;-96.156;2024-03-02T12:14:17;11.88;;;5.47;;
83443;SDS011;73374;41.170;-96.156;2024-03-02T12:19:20;39.40;;;15.95;;
83443;SDS011;73374;41.170;-96.156;2024-03-02T12:24:23;52.60;;;22.40;;
83443;SDS011;73374;41.170;-96.156;2024-03-02T12:29:30;53.13;;;19.45;;
83443;SDS011;73374;41.170;-96.156;2024-03-02T12:34:33;39.60;;;17.35;;
83443;SDS011;73374;41.170;-96.156;2024-03-02T12:39:36;43.28;;;17.77;;
83443;SDS011;73374;41.170;-96.156;2024-03-02T12:44:41;39.83;;;16.05;;
83443;SDS011;73374;41.170;-96.156;2024-03-02T12:49:44;43.30;;;18.92;;
83443;SDS011;73374;41.170;-96.156;2024-03-02T12:54:47;45.58;;;17.25;;
83443;SDS011;73374;41.170;-96.156;2024-03-02T12:59:54;45.30;;;19.95;;
83443;SDS011;73374;41.170;-96.156;2024-03-02T13:05:00;41.17;;;16.02;;
83443;SDS011;73374;41.170;-96.156;2024-03-02T13:10:04;44.38;;;18.65;;
83443;SDS011;73374;41.170;-96.156;2024-03-02T13:15:09;34.50;;;14.57;;
83443;SDS011;73374;41.170;-96.156;2024-03-02T13:20:18;41.70;;;19.20;;
83443;SDS011;73374;41.170;-96.156;2024-03-02T13:25:24;41.22;;;15.82;;
83443;SDS011;73374;41.170;-96.156;2024-03-02T13:30:29;38.45;;;15.00;;
83443;SDS011;73374;41.170;-96.156;2024-03-02T13:35:32;25.63;;;10.00;;
83443;SDS011;73374;41.170;-96.156;2024-03-02T13:40:35;48.05;;;21.55;;
83443;SDS011;73374;41.170;-96.156;2024-03-02T13:45:40;36.20;;;15.43;;
83443;SDS011;73374;41.170;-96.156;2024-03-02T13:50:43;48.63;;;22.48;;
83443;SDS011;73374;41.170;-96.156;2024-03-02T13:55:46;33.58;;;15.13;;
83443;SDS011;73374;41.170;-96.156;2024-03-02T14:00:50;24.38;;;10.07;;
83443;SDS011;73374;41.170;-96.156;2024-03-02T14:05:54;122.50;;;33.05;;
83443;SDS011;73374;41.170;-96.156;2024-03-02T14:10:57;70.72;;;21.50;;
83443;SDS011;73374;41.170;-96.156;2024-03-02T14:16:01;15.63;;;8.18;;
83443;SDS011;73374;41.170;-96.156;2024-03-02T14:21:05;49.40;;;18.55;;
83443;SDS011;73374;41.170;-96.156;2024-03-02T14:26:08;43.17;;;15.95;;
83443;SDS011;73374;41.170;-96.156;2024-03-02T14:31:12;56.03;;;21.63;;
83443;SDS011;73374;41.170;-96.156;2024-03-02T14:36:15;66.65;;;23.00;;
83443;SDS011;73374;41.170;-96.156;2024-03-02T14:41:18;44.28;;;19.30;;
83443;SDS011;73374;41.170;-96.156;2024-03-02T14:46:23;46.50;;;20.42;;
83443;SDS011;73374;41.170;-96.156;2024-03-02T14:51:26;21.30;;;9.20;;
83443;SDS011;73374;41.170;-96.156;2024-03-02T14:56:29;36.30;;;15.75;;
83443;SDS011;73374;41.170;-96.156;2024-03-02T15:01:34;33.78;;;22.15;;
83443;SDS011;73374;41.170;-96.156;2024-03-02T15:06:37;29.05;;;20.02;;
83443;SDS011;73374;41.170;-96.156;2024-03-02T15:11:41;27.73;;;15.52;;
83443;SDS011;73374;41.170;-96.156;2024-03-02T15:16:47;24.55;;;14.60;;
83443;SDS011;73374;41.170;-96.156;2024-03-02T15:21:50;26.80;;;14.68;;
83443;SDS011;73374;41.170;-96.156;2024-03-02T15:26:53;20.70;;;10.98;;
83443;SDS011;73374;41.170;-96.156;2024-03-02T15:32:00;21.70;;;15.38;;
83443;SDS011;73374;41.170;-96.156;2024-03-02T15:37:03;17.33;;;10.95;;
83443;SDS011;73374;41.170;-96.156;2024-03-02T15:42:07;16.73;;;10.10;;
83443;SDS011;73374;41.170;-96.156;2024-03-02T15:47:11;13.95;;;8.10;;
83443;SDS011;73374;41.170;-96.156;2024-03-02T15:52:14;18.33;;;11.57;;
83443;SDS011;73374;41.170;-96.156;2024-03-02T15:57:17;17.00;;;11.35;;
83443;SDS011;73374;41.170;-96.156;2024-03-02T16:02:23;15.07;;;8.13;;
83443;SDS011;73374;41.170;-96.156;2024-03-02T16:07:26;18.05;;;10.70;;
83443;SDS011;73374;41.170;-96.156;2024-03-02T16:12:29;14.68;;;9.65;;
83443;SDS011;73374;41.170;-96.156;2024-03-02T16:17:34;15.90;;;9.95;;
83443;SDS011;73374;41.170;-96.156;2024-03-02T16:22:37;14.70;;;7.93;;
83443;SDS011;73374;41.170;-96.156;2024-03-02T16:27:40;14.15;;;9.07;;
83443;SDS011;73374;41.170;-96.156;2024-03-02T16:32:47;12.90;;;7.65;;
83443;SDS011;73374;41.170;-96.156;2024-03-02T16:37:50;17.40;;;8.57;;
83443;SDS011;73374;41.170;-96.156;2024-03-02T16:42:53;11.27;;;6.65;;
83443;SDS011;73374;41.170;-96.156;2024-03-02T16:47:57;13.63;;;7.78;;
83443;SDS011;73374;41.170;-96.156;2024-03-02T16:53:01;12.18;;;7.50;;
83443;SDS011;73374;41.170;-96.156;2024-03-02T16:58:04;10.70;;;7.60;;
83443;SDS011;73374;41.170;-96.156;2024-03-02T17:08:27;12.50;;;8.55;;
83443;SDS011;73374;41.170;-96.156;2024-03-02T17:13:30;15.23;;;7.82;;
83443;SDS011;73374;41.170;-96.156;2024-03-02T17:18:34;9.90;;;7.05;;
83443;SDS011;73374;41.170;-96.156;2024-03-02T17:23:37;10.57;;;6.38;;
83443;SDS011;73374;41.170;-96.156;2024-03-02T17:28:40;12.77;;;7.25;;
83443;SDS011;73374;41.170;-96.156;2024-03-02T17:33:45;16.52;;;6.63;;
83443;SDS011;73374;41.170;-96.156;2024-03-02T17:38:48;11.32;;;7.22;;
83443;SDS011;73374;41.170;-96.156;2024-03-02T17:43:51;10.32;;;6.15;;
83443;SDS011;73374;41.170;-96.156;2024-03-02T17:48:56;14.43;;;7.05;;
83443;SDS011;73374;41.170;-96.156;2024-03-02T17:53:59;10.15;;;6.72;;
83443;SDS011;73374;41.170;-96.156;2024-03-02T17:59:02;11.05;;;6.28;;
83443;SDS011;73374;41.170;-96.156;2024-03-02T18:04:07;11.40;;;6.25;;
83443;SDS011;73374;41.170;-96.156;2024-03-02T18:09:11;15.70;;;6.40;;
83443;SDS011;73374;41.170;-96.156;2024-03-02T18:14:14;10.73;;;6.50;;
83443;SDS011;73374;41.170;-96.156;2024-03-02T18:19:18;10.95;;;5.95;;
83443;SDS011;73374;41.170;-96.156;2024-03-02T18:24:22;10.70;;;6.50;;
83443;SDS011;73374;41.170;-96.156;2024-03-02T18:29:25;9.48;;;6.15;;
83443;SDS011;73374;41.170;-96.156;2024-03-02T18:34:29;9.98;;;3.75;;
83443;SDS011;73374;41.170;-96.156;2024-03-02T18:39:33;7.53;;;4.75;;
83443;SDS011;73374;41.170;-96.156;2024-03-02T18:44:36;15.45;;;4.18;;
83443;SDS011;73374;41.170;-96.156;2024-03-02T18:49:43;8.35;;;4.57;;
83443;SDS011;73374;41.170;-96.156;2024-03-02T18:54:47;10.82;;;5.18;;
83443;SDS011;73374;41.170;-96.156;2024-03-02T18:59:50;9.95;;;5.05;;
83443;SDS011;73374;41.170;-96.156;2024-03-02T19:04:54;9.43;;;5.68;;
83443;SDS011;73374;41.170;-96.156;2024-03-02T19:09:57;13.90;;;5.82;;
83443;SDS011;73374;41.170;-96.156;2024-03-02T19:15:01;11.48;;;5.97;;
83443;SDS011;73374;41.170;-96.156;2024-03-02T19:20:06;7.60;;;5.13;;
83443;SDS011;73374;41.170;-96.156;2024-03-02T19:25:15;11.00;;;6.43;;
83443;SDS011;73374;41.170;-96.156;2024-03-02T19:30:18;9.88;;;5.47;;
83443;SDS011;73374;41.170;-96.156;2024-03-02T19:35:22;9.55;;;5.43;;
83443;SDS011;73374;41.170;-96.156;2024-03-02T19:40:25;7.28;;;5.20;;
83443;SDS011;73374;41.170;-96.156;2024-03-02T19:45:28;14.98;;;5.88;;
83443;SDS011;73374;41.170;-96.156;2024-03-02T19:50:33;7.45;;;5.10;;
83443;SDS011;73374;41.170;-96.156;2024-03-02T19:55:36;7.60;;;4.40;;
83443;SDS011;73374;41.170;-96.156;2024-03-02T20:00:39;10.23;;;5.40;;
83443;SDS011;73374;41.170;-96.156;2024-03-02T20:05:44;7.43;;;4.50;;
83443;SDS011;73374;41.170;-96.156;2024-03-02T20:10:47;8.50;;;4.15;;
83443;SDS011;73374;41.170;-96.156;2024-03-02T20:15:50;7.45;;;4.20;;
83443;SDS011;73374;41.170;-96.156;2024-03-02T20:20:55;9.82;;;4.43;;
83443;SDS011;73374;41.170;-96.156;2024-03-02T20:25:58;8.90;;;4.45;;
83443;SDS011;73374;41.170;-96.156;2024-03-02T20:31:01;6.95;;;4.22;;
83443;SDS011;73374;41.170;-96.156;2024-03-02T20:36:11;7.72;;;4.03;;
83443;SDS011;73374;41.170;-96.156;2024-03-02T20:41:14;4.55;;;3.50;;
83443;SDS011;73374;41.170;-96.156;2024-03-02T20:46:17;7.45;;;4.88;;
83443;SDS011;73374;41.170;-96.156;2024-03-02T20:51:22;8.38;;;4.68;;
83443;SDS011;73374;41.170;-96.156;2024-03-02T20:56:25;7.30;;;4.57;;
83443;SDS011;73374;41.170;-96.156;2024-03-02T21:01:28;6.65;;;4.45;;
83443;SDS011;73374;41.170;-96.156;2024-03-02T21:06:33;8.48;;;4.00;;
83443;SDS011;73374;41.170;-96.156;2024-03-02T21:11:36;8.77;;;4.35;;
83443;SDS011;73374;41.170;-96.156;2024-03-02T21:16:39;10.30;;;4.72;;
83443;SDS011;73374;41.170;-96.156;2024-03-02T21:21:43;6.85;;;4.00;;
83443;SDS011;73374;41.170;-96.156;2024-03-02T21:26:46;11.05;;;4.10;;
83443;SDS011;73374;41.170;-96.156;2024-03-02T21:31:50;6.40;;;3.25;;
83443;SDS011;73374;41.170;-96.156;2024-03-02T21:36:54;7.53;;;3.47;;
83443;SDS011;73374;41.170;-96.156;2024-03-02T21:41:58;9.75;;;3.90;;
83443;SDS011;73374;41.170;-96.156;2024-03-02T21:47:01;7.65;;;3.65;;
83443;SDS011;73374;41.170;-96.156;2024-03-02T21:52:09;8.70;;;3.67;;
83443;SDS011;73374;41.170;-96.156;2024-03-02T21:57:12;6.25;;;3.55;;
83443;SDS011;73374;41.170;-96.156;2024-03-02T22:02:15;8.35;;;3.92;;
83443;SDS011;73374;41.170;-96.156;2024-03-02T22:07:20;7.45;;;3.35;;
83443;SDS011;73374;41.170;-96.156;2024-03-02T22:12:23;6.07;;;3.00;;
83443;SDS011;73374;41.170;-96.156;2024-03-02T22:17:26;6.60;;;3.30;;
83443;SDS011;73374;41.170;-96.156;2024-03-02T22:22:31;7.32;;;3.78;;
83443;SDS011;73374;41.170;-96.156;2024-03-02T22:27:34;5.25;;;2.90;;
83443;SDS011;73374;41.170;-96.156;2024-03-02T22:32:39;5.93;;;3.00;;
83443;SDS011;73374;41.170;-96.156;2024-03-02T22:37:44;7.57;;;3.05;;
83443;SDS011;73374;41.170;-96.156;2024-03-02T22:42:47;6.60;;;3.00;;
83443;SDS011;73374;41.170;-96.156;2024-03-02T22:47:50;7.18;;;3.20;;
83443;SDS011;73374;41.170;-96.156;2024-03-02T22:52:55;6.82;;;2.97;;
83443;SDS011;73374;41.170;-96.156;2024-03-02T22:57:58;9.65;;;3.45;;
83443;SDS011;73374;41.170;-96.156;2024-03-02T23:03:01;8.02;;;2.83;;
83443;SDS011;73374;41.170;-96.156;2024-03-02T23:08:06;3.67;;;2.35;;
83443;SDS011;73374;41.170;-96.156;2024-03-02T23:13:09;4.88;;;2.55;;
83443;SDS011;73374;41.170;-96.156;2024-03-02T23:18:12;4.78;;;2.70;;
83443;SDS011;73374;41.170;-96.156;2024-03-02T23:23:17;6.80;;;3.08;;
83443;SDS011;73374;41.170;-96.156;2024-03-02T23:28:20;10.63;;;3.20;;
83443;SDS011;73374;41.170;-96.156;2024-03-02T23:33:23;8.45;;;2.88;;
83443;SDS011;73374;41.170;-96.156;2024-03-02T23:38:28;8.90;;;3.47;;
83443;SDS011;73374;41.170;-96.156;2024-03-02T23:43:31;8.38;;;3.30;;
83443;SDS011;73374;41.170;-96.156;2024-03-02T23:48:35;4.35;;;3.50;;
83443;SDS011;73374;41.170;-96.156;2024-03-02T23:53:39;6.82;;;3.25;;
83443;SDS011;73374;41.170;-96.156;2024-03-02T23:58:43;7.10;;;3.72;;
